createdAt,value
2022-10-07T00:00:46.204Z,2.80
2022-10-07T00:02:48.982Z,2.30
2022-10-07T00:04:53.126Z,2.27
2022-10-07T00:06:56.030Z,2.37
2022-10-07T00:08:59.736Z,2.33
2022-10-07T00:11:06.773Z,2.30
2022-10-07T00:13:11.928Z,2.40
2022-10-07T00:15:15.244Z,2.30
2022-10-07T00:17:18.145Z,2.30
2022-10-07T00:19:20.811Z,2.47
2022-10-07T00:21:26.942Z,2.40
2022-10-07T00:23:29.626Z,2.30
2022-10-07T00:25:32.427Z,2.03
2022-10-07T00:27:35.077Z,2.33
2022-10-07T00:29:37.939Z,2.17
2022-10-07T00:31:41.833Z,2.47
2022-10-07T00:33:45.530Z,2.87
2022-10-07T00:35:50.525Z,2.20
2022-10-07T00:37:54.663Z,2.30
2022-10-07T00:39:57.447Z,2.40
2022-10-07T00:42:00.151Z,2.57
2022-10-07T00:44:41.612Z,2.40
2022-10-07T00:46:44.353Z,2.27
2022-10-07T00:48:47.659Z,2.30
2022-10-07T00:50:53.312Z,2.40
2022-10-07T00:53:00.705Z,2.60
2022-10-07T00:55:08.695Z,2.40
2022-10-07T00:57:12.031Z,2.77
2022-10-07T00:59:16.675Z,2.27
2022-10-07T01:01:20.540Z,2.20
2022-10-07T01:03:24.273Z,2.50
2022-10-07T01:05:27.159Z,2.57
2022-10-07T01:07:30.326Z,2.23
2022-10-07T01:09:34.620Z,2.57
2022-10-07T01:11:50.250Z,2.23
2022-10-07T01:14:04.423Z,2.03
2022-10-07T01:16:16.525Z,2.13
2022-10-07T01:18:25.039Z,2.57
2022-10-07T01:20:35.782Z,2.40
2022-10-07T01:22:47.785Z,2.50
2022-10-07T01:25:04.314Z,1.97
2022-10-07T01:27:11.693Z,2.40
2022-10-07T01:29:18.699Z,2.37
2022-10-07T01:31:26.385Z,2.50
2022-10-07T01:33:32.561Z,2.30
2022-10-07T01:35:38.743Z,2.60
2022-10-07T01:37:48.500Z,2.40
2022-10-07T01:39:54.947Z,2.20
2022-10-07T01:41:58.853Z,2.00
2022-10-07T01:44:03.985Z,2.00
2022-10-07T01:46:09.845Z,2.50
2022-10-07T01:48:12.787Z,2.30
2022-10-07T01:50:17.422Z,2.40
2022-10-07T01:52:43.143Z,2.27
2022-10-07T01:55:03.072Z,2.70
2022-10-07T01:57:18.310Z,2.70
2022-10-07T01:59:59.149Z,2.20
2022-10-07T02:02:09.797Z,2.80
2022-10-07T02:04:31.128Z,3.53
2022-10-07T02:06:42.409Z,2.57
2022-10-07T02:08:50.464Z,2.67
2022-10-07T02:11:05.262Z,2.60
2022-10-07T02:13:14.533Z,2.30
2022-10-07T02:15:24.767Z,2.60
2022-10-07T02:17:32.130Z,2.67
2022-10-07T02:19:39.311Z,2.60
2022-10-07T02:21:44.535Z,2.40
2022-10-07T02:23:50.425Z,2.70
2022-10-07T02:25:55.490Z,2.60
2022-10-07T02:28:03.375Z,3.03
2022-10-07T02:30:11.391Z,2.75
2022-10-07T02:32:20.747Z,2.90
2022-10-07T02:34:26.162Z,2.47
2022-10-07T02:36:32.903Z,2.70
2022-10-07T02:38:38.166Z,2.50
2022-10-07T02:40:45.828Z,3.00
2022-10-07T02:42:56.809Z,2.97
2022-10-07T02:45:06.313Z,3.20
2022-10-07T02:47:16.560Z,2.87
2022-10-07T02:49:24.108Z,3.13
2022-10-07T02:51:31.906Z,2.90
2022-10-07T02:53:36.857Z,3.07
2022-10-07T02:55:39.929Z,3.13
2022-10-07T02:57:47.228Z,3.10
2022-10-07T02:59:52.530Z,3.10
2022-10-07T03:02:01.728Z,3.00
2022-10-07T03:04:05.885Z,3.27
2022-10-07T03:06:12.737Z,3.00
2022-10-07T03:08:15.979Z,3.27
2022-10-07T03:10:19.665Z,3.30
2022-10-07T03:12:22.742Z,2.80
2022-10-07T03:14:25.688Z,3.00
2022-10-07T03:16:28.473Z,3.53
2022-10-07T03:18:31.287Z,3.20
2022-10-07T03:20:44.404Z,3.33
2022-10-07T03:22:48.603Z,3.23
2022-10-07T03:24:54.630Z,3.20
2022-10-07T03:26:57.569Z,3.60
2022-10-07T03:29:01.159Z,3.63
2022-10-07T03:31:06.360Z,3.33
2022-10-07T03:33:10.048Z,3.30
2022-10-07T03:35:14.123Z,3.73
2022-10-07T03:37:17.313Z,8.88
2022-10-07T03:39:21.805Z,7.97
2022-10-07T03:41:24.539Z,5.00
2022-10-07T03:43:30.727Z,3.80
2022-10-07T03:45:35.207Z,3.43
2022-10-07T03:47:38.216Z,3.50
2022-10-07T03:49:42.185Z,3.53
2022-10-07T03:51:46.013Z,3.17
2022-10-07T03:53:49.046Z,3.17
2022-10-07T03:55:54.230Z,3.13
2022-10-07T03:57:59.706Z,3.23
2022-10-07T04:00:04.994Z,3.10
2022-10-07T04:02:17.415Z,2.87
2022-10-07T04:04:20.597Z,3.20
2022-10-07T04:06:24.152Z,2.92
2022-10-07T04:08:28.322Z,3.37
2022-10-07T04:10:33.029Z,3.47
2022-10-07T04:12:37.383Z,3.40
2022-10-07T04:14:40.267Z,3.50
2022-10-07T04:16:43.443Z,3.20
2022-10-07T04:18:48.434Z,4.05
2022-10-07T04:20:51.478Z,3.03
2022-10-07T04:22:54.242Z,3.20
2022-10-07T04:25:14.939Z,3.23
2022-10-07T04:27:39.774Z,3.17
2022-10-07T04:29:41.931Z,3.27
2022-10-07T04:31:44.899Z,3.23
2022-10-07T04:33:47.729Z,3.50
2022-10-07T04:35:56.446Z,3.80
2022-10-07T04:37:59.986Z,3.60
2022-10-07T04:40:04.661Z,3.40
2022-10-07T04:42:29.538Z,3.53
2022-10-07T04:44:32.255Z,3.33
2022-10-07T04:46:42.179Z,3.00
2022-10-07T04:48:48.382Z,2.90
2022-10-07T04:50:54.881Z,3.70
2022-10-07T04:52:58.948Z,3.77
2022-10-07T04:55:06.861Z,3.57
2022-10-07T04:57:13.398Z,3.67
2022-10-07T04:59:16.879Z,3.15
2022-10-07T05:01:20.220Z,3.83
2022-10-07T05:03:27.175Z,3.20
2022-10-07T05:05:30.066Z,3.20
2022-10-07T05:07:33.045Z,3.17
2022-10-07T05:09:36.461Z,3.17
2022-10-07T05:11:39.175Z,3.00
2022-10-07T05:13:47.410Z,3.10
2022-10-07T05:15:52.019Z,3.40
2022-10-07T05:17:55.886Z,3.28
2022-10-07T05:20:02.043Z,3.20
2022-10-07T05:22:04.881Z,3.50
2022-10-07T05:24:07.732Z,3.80
2022-10-07T05:26:13.796Z,3.88
2022-10-07T05:28:19.851Z,4.40
2022-10-07T05:30:23.134Z,4.10
2022-10-07T05:32:26.510Z,3.63
2022-10-07T05:34:29.436Z,3.83
2022-10-07T05:36:33.483Z,3.63
2022-10-07T05:38:37.823Z,3.53
2022-10-07T05:40:40.830Z,3.60
2022-10-07T05:42:43.566Z,3.40
2022-10-07T05:44:46.338Z,3.53
2022-10-07T05:46:50.006Z,2.77
2022-10-07T05:48:55.453Z,2.80
2022-10-07T05:51:02.443Z,2.90
2022-10-07T05:53:08.456Z,2.97
2022-10-07T05:55:11.917Z,2.97
2022-10-07T05:57:14.765Z,4.03
2022-10-07T05:59:17.483Z,3.50
2022-10-07T06:01:23.918Z,3.37
2022-10-07T06:03:27.902Z,3.97
2022-10-07T06:05:32.967Z,4.57
2022-10-07T06:07:35.715Z,4.53
2022-10-07T06:09:58.874Z,4.63
2022-10-07T06:12:19.500Z,4.60
2022-10-07T06:14:23.851Z,5.87
2022-10-07T06:16:27.209Z,7.60
2022-10-07T06:18:30.606Z,9.07
2022-10-07T06:20:33.333Z,8.90
2022-10-07T06:22:36.295Z,7.60
2022-10-07T06:24:41.947Z,6.73
2022-10-07T06:26:44.840Z,7.00
2022-10-07T06:28:48.028Z,9.83
2022-10-07T06:30:52.497Z,8.10
2022-10-07T06:32:56.393Z,10.90
2022-10-07T06:34:59.277Z,9.90
2022-10-07T06:37:02.779Z,9.17
2022-10-07T06:39:06.344Z,7.20
2022-10-07T06:41:16.149Z,8.50
2022-10-07T06:43:20.049Z,6.80
2022-10-07T06:45:31.539Z,8.23
2022-10-07T06:47:35.069Z,8.50
2022-10-07T06:49:38.748Z,8.97
2022-10-07T06:51:41.523Z,9.20
2022-10-07T06:53:45.286Z,10.37
2022-10-07T06:55:51.507Z,8.83
2022-10-07T06:57:58.341Z,9.77
2022-10-07T07:00:01.623Z,9.83
2022-10-07T07:02:07.010Z,9.07
2022-10-07T07:04:10.412Z,9.10
2022-10-07T07:06:13.818Z,9.43
2022-10-07T07:08:17.329Z,8.30
2022-10-07T07:10:20.190Z,8.87
2022-10-07T07:12:26.737Z,9.53
2022-10-07T07:14:34.896Z,9.47
2022-10-07T07:16:45.970Z,8.80
2022-10-07T07:18:51.955Z,9.30
2022-10-07T07:20:54.781Z,9.10
2022-10-07T07:22:57.771Z,8.87
2022-10-07T07:25:00.600Z,9.47
2022-10-07T07:27:03.690Z,8.43
2022-10-07T07:29:07.901Z,8.30
2022-10-07T07:31:18.439Z,7.73
2022-10-07T07:33:21.291Z,8.47
2022-10-07T07:35:25.348Z,8.37
2022-10-07T07:37:29.591Z,8.60
2022-10-07T07:39:32.983Z,7.90
2022-10-07T07:41:46.817Z,8.57
2022-10-07T07:43:52.755Z,8.30
2022-10-07T07:45:59.213Z,8.43
2022-10-07T07:48:03.563Z,7.77
2022-10-07T07:50:09.792Z,8.70
2022-10-07T07:52:12.483Z,7.83
2022-10-07T07:54:20.565Z,7.87
2022-10-07T07:56:25.243Z,8.10
2022-10-07T07:58:28.470Z,8.13
2022-10-07T08:00:32.914Z,8.00
2022-10-07T08:02:40.040Z,7.17
2022-10-07T08:04:47.940Z,8.57
2022-10-07T08:06:51.546Z,8.00
2022-10-07T08:08:57.364Z,8.30
2022-10-07T08:11:07.982Z,7.63
2022-10-07T08:13:10.945Z,7.90
2022-10-07T08:15:15.093Z,7.37
2022-10-07T08:17:18.769Z,8.00
2022-10-07T08:19:21.936Z,7.03
2022-10-07T08:21:30.300Z,7.30
2022-10-07T08:23:35.130Z,7.67
2022-10-07T08:25:37.903Z,7.30
2022-10-07T08:27:43.922Z,7.10
2022-10-07T08:29:48.379Z,7.40
2022-10-07T08:31:51.443Z,8.03
2022-10-07T08:33:56.450Z,6.97
2022-10-07T08:36:00.510Z,6.90
2022-10-07T08:38:05.616Z,7.83
2022-10-07T08:40:18.354Z,7.37
2022-10-07T08:42:31.346Z,7.23
2022-10-07T08:44:39.577Z,7.27
2022-10-07T08:46:56.561Z,7.00
2022-10-07T08:49:04.703Z,6.83
2022-10-07T08:51:20.140Z,7.00
2022-10-07T08:53:29.682Z,6.90
2022-10-07T08:55:37.478Z,6.70
2022-10-07T08:57:50.825Z,6.83
2022-10-07T08:59:58.096Z,7.20
2022-10-07T09:02:15.585Z,6.80
2022-10-07T09:04:33.087Z,7.63
2022-10-07T09:06:39.812Z,7.17
2022-10-07T09:08:47.113Z,7.00
2022-10-07T09:10:53.423Z,7.80
2022-10-07T09:13:00.420Z,7.40
2022-10-07T09:15:06.799Z,7.83
2022-10-07T09:17:15.261Z,7.70
2022-10-07T09:19:23.467Z,7.00
2022-10-07T09:21:35.010Z,7.20
2022-10-07T09:23:37.995Z,7.50
2022-10-07T09:25:43.608Z,7.23
2022-10-07T09:27:46.530Z,7.67
2022-10-07T09:29:50.038Z,7.33
2022-10-07T09:31:53.627Z,7.10
2022-10-07T09:33:56.536Z,6.50
2022-10-07T09:36:07.055Z,6.60
2022-10-07T09:38:09.959Z,7.00
2022-10-07T09:40:24.094Z,7.10
2022-10-07T09:42:35.351Z,7.17
2022-10-07T09:44:40.069Z,7.00
2022-10-07T09:46:47.410Z,8.10
2022-10-07T09:48:53.861Z,7.13
2022-10-07T09:51:15.400Z,7.23
2022-10-07T09:53:21.142Z,8.30
2022-10-07T09:55:37.284Z,7.97
2022-10-07T09:57:41.661Z,7.30
2022-10-07T09:59:44.471Z,7.60
2022-10-07T10:01:54.519Z,7.93
2022-10-07T10:04:00.263Z,7.87
2022-10-07T10:06:05.496Z,7.80
2022-10-07T10:08:23.063Z,7.03
2022-10-07T10:10:28.393Z,7.87
2022-10-07T10:12:33.506Z,8.10
2022-10-07T10:14:45.535Z,7.23
2022-10-07T10:16:48.205Z,7.80
2022-10-07T10:18:55.564Z,7.33
2022-10-07T10:21:14.954Z,8.17
2022-10-07T10:23:28.600Z,8.63
2022-10-07T10:26:00.278Z,7.97
2022-10-07T10:28:08.432Z,8.63
2022-10-07T10:30:20.033Z,7.43
2022-10-07T10:32:48.712Z,7.80
2022-10-07T10:34:58.460Z,7.37
2022-10-07T10:37:05.864Z,7.77
2022-10-07T10:39:25.233Z,8.47
2022-10-07T10:41:37.076Z,8.60
2022-10-07T10:43:56.635Z,8.03
2022-10-07T10:46:25.697Z,7.43
2022-10-07T10:48:37.982Z,7.90
2022-10-07T10:50:53.295Z,8.20
2022-10-07T10:53:07.489Z,8.03
2022-10-07T10:55:33.190Z,8.00
2022-10-07T10:57:45.210Z,7.70
2022-10-07T11:00:06.920Z,8.07
2022-10-07T11:02:32.523Z,8.90
2022-10-07T11:04:46.210Z,7.90
2022-10-07T11:06:54.162Z,7.70
2022-10-07T11:08:59.892Z,9.07
2022-10-07T11:11:07.253Z,8.50
2022-10-07T11:13:24.744Z,8.13
2022-10-07T11:15:32.950Z,8.23
2022-10-07T11:17:37.778Z,7.23
2022-10-07T11:19:49.587Z,7.53
2022-10-07T11:21:54.129Z,8.73
2022-10-07T11:24:02.708Z,7.60
2022-10-07T11:26:15.237Z,8.00
2022-10-07T11:28:22.610Z,8.77
2022-10-07T11:30:38.542Z,8.50
2022-10-07T11:32:48.501Z,7.87
2022-10-07T11:34:56.221Z,8.37
2022-10-07T11:37:06.010Z,8.47
2022-10-07T11:39:09.875Z,7.67
2022-10-07T11:41:20.344Z,8.17
2022-10-07T11:43:27.285Z,8.37
2022-10-07T11:45:33.906Z,7.73
2022-10-07T11:47:40.939Z,7.77
2022-10-07T11:49:55.847Z,7.97
2022-10-07T11:52:03.640Z,7.77
2022-10-07T11:54:09.265Z,8.20
2022-10-07T11:56:20.407Z,7.90
2022-10-07T11:58:26.534Z,8.10
2022-10-07T12:00:32.418Z,8.23
2022-10-07T12:02:45.432Z,8.63
2022-10-07T12:04:49.811Z,8.67
2022-10-07T12:07:30.444Z,8.27
2022-10-07T12:09:54.605Z,7.50
2022-10-07T12:11:57.837Z,7.17
2022-10-07T12:14:31.639Z,7.73
2022-10-07T12:16:55.403Z,6.93
2022-10-07T12:19:16.028Z,7.27
2022-10-07T12:21:18.805Z,6.77
2022-10-07T12:23:40.954Z,6.80
2022-10-07T12:25:59.507Z,7.50
2022-10-07T12:28:02.386Z,7.37
2022-10-07T12:30:27.317Z,8.10
2022-10-07T12:32:48.518Z,7.53
2022-10-07T12:34:51.520Z,7.73
2022-10-07T12:36:54.353Z,7.60
2022-10-07T12:39:35.151Z,7.00
2022-10-07T12:41:46.310Z,6.77
2022-10-07T12:44:01.091Z,7.10
2022-10-07T12:46:10.214Z,6.80
2022-10-07T12:48:20.382Z,6.77
2022-10-07T12:50:25.380Z,6.47
2022-10-07T12:52:42.593Z,6.87
2022-10-07T12:54:51.580Z,6.77
2022-10-07T12:56:54.590Z,6.93
2022-10-07T12:59:28.023Z,7.00
2022-10-07T13:01:47.551Z,7.07
2022-10-07T13:04:13.796Z,6.30
2022-10-07T13:07:10.654Z,5.93
2022-10-07T13:09:38.353Z,6.57
2022-10-07T13:12:06.696Z,6.00
2022-10-07T13:14:19.007Z,5.77
2022-10-07T13:16:31.751Z,6.67
2022-10-07T13:18:42.662Z,6.80
2022-10-07T13:21:13.550Z,6.43
2022-10-07T13:23:21.978Z,6.30
2022-10-07T13:25:27.740Z,6.00
2022-10-07T13:27:32.609Z,6.33
2022-10-07T13:29:35.607Z,6.00
2022-10-07T13:31:38.364Z,5.70
2022-10-07T13:33:43.078Z,6.10
2022-10-07T13:35:45.960Z,5.83
2022-10-07T13:37:48.857Z,5.47
2022-10-07T13:39:51.597Z,5.77
2022-10-07T13:41:57.893Z,5.90
2022-10-07T13:44:03.621Z,5.33
2022-10-07T13:46:09.757Z,5.57
2022-10-07T13:48:24.820Z,5.53
2022-10-07T13:50:30.765Z,5.50
2022-10-07T13:52:37.159Z,5.83
2022-10-07T13:54:40.231Z,5.47
2022-10-07T13:56:43.805Z,6.20
2022-10-07T13:58:47.248Z,5.53
2022-10-07T14:00:50.121Z,5.57
2022-10-07T14:02:53.184Z,5.53
2022-10-07T14:05:00.895Z,5.27
2022-10-07T14:07:17.855Z,5.70
2022-10-07T14:09:24.732Z,5.63
2022-10-07T14:11:27.439Z,5.67
2022-10-07T14:13:31.502Z,5.70
2022-10-07T14:15:40.101Z,5.00
2022-10-07T14:17:47.624Z,5.10
2022-10-07T14:19:56.245Z,13.80
2022-10-07T14:22:00.505Z,13.50
2022-10-07T14:24:11.507Z,7.63
2022-10-07T14:26:16.491Z,5.30
2022-10-07T14:28:20.195Z,4.90
2022-10-07T14:30:56.331Z,5.30
2022-10-07T14:33:32.499Z,5.10
2022-10-07T14:35:37.076Z,5.13
2022-10-07T14:37:39.771Z,14.23
2022-10-07T14:39:47.633Z,5.47
2022-10-07T14:41:50.899Z,5.40
2022-10-07T14:43:53.800Z,5.03
2022-10-07T14:45:56.621Z,4.90
2022-10-07T14:47:59.370Z,4.90
2022-10-07T14:50:02.192Z,4.83
2022-10-07T14:52:06.100Z,5.40
2022-10-07T14:54:09.123Z,5.90
2022-10-07T14:56:16.139Z,6.07
2022-10-07T14:58:18.869Z,5.03
2022-10-07T15:00:23.703Z,5.70
2022-10-07T15:02:26.445Z,5.20
2022-10-07T15:04:29.346Z,5.13
2022-10-07T15:06:32.204Z,5.80
2022-10-07T15:08:34.929Z,5.60
2022-10-07T15:10:37.650Z,5.20
2022-10-07T15:12:42.958Z,5.20
2022-10-07T15:14:45.874Z,5.10
2022-10-07T15:16:50.405Z,5.70
2022-10-07T15:18:53.971Z,6.03
2022-10-07T15:20:57.863Z,5.57
2022-10-07T15:23:02.475Z,5.90
2022-10-07T15:25:06.047Z,6.13
2022-10-07T15:27:09.889Z,5.40
2022-10-07T15:29:15.138Z,5.20
2022-10-07T15:31:18.649Z,5.13
2022-10-07T15:33:21.418Z,5.00
2022-10-07T15:35:24.882Z,5.30
2022-10-07T15:37:28.237Z,4.90
2022-10-07T15:39:30.998Z,5.17
2022-10-07T15:41:36.026Z,5.10
2022-10-07T15:43:38.945Z,5.20
2022-10-07T15:45:46.174Z,4.83
2022-10-07T15:47:51.032Z,5.63
2022-10-07T15:49:53.905Z,5.10
2022-10-07T15:51:56.642Z,6.07
2022-10-07T15:54:00.083Z,5.40
2022-10-07T15:56:02.889Z,5.40
2022-10-07T15:58:05.879Z,5.70
2022-10-07T16:00:09.732Z,5.40
2022-10-07T16:02:19.138Z,5.47
2022-10-07T16:04:22.062Z,5.37
2022-10-07T16:06:27.094Z,5.20
2022-10-07T16:08:31.102Z,4.87
2022-10-07T16:10:38.011Z,5.70
2022-10-07T16:12:40.721Z,5.40
2022-10-07T16:14:43.500Z,5.50
2022-10-07T16:16:46.245Z,6.20
2022-10-07T16:18:52.171Z,6.40
2022-10-07T16:20:54.967Z,6.23
2022-10-07T16:22:57.715Z,6.83
2022-10-07T16:25:00.517Z,6.07
2022-10-07T16:27:03.302Z,6.30
2022-10-07T16:29:28.015Z,6.33
2022-10-07T16:31:31.793Z,6.50
2022-10-07T16:33:34.537Z,6.33
2022-10-07T16:35:38.575Z,7.00
2022-10-07T16:37:41.376Z,7.50
2022-10-07T16:39:44.059Z,6.43
2022-10-07T16:41:48.052Z,8.33
2022-10-07T16:43:50.761Z,10.60
2022-10-07T16:45:53.495Z,9.17
2022-10-07T16:47:56.844Z,9.00
2022-10-07T16:49:59.600Z,9.67
2022-10-07T16:52:04.374Z,9.13
2022-10-07T16:54:12.657Z,8.70
2022-10-07T16:56:16.819Z,9.83
2022-10-07T16:58:19.570Z,9.57
2022-10-07T17:00:23.035Z,8.67
2022-10-07T17:02:25.697Z,7.20
2022-10-07T17:04:28.342Z,7.53
2022-10-07T17:06:32.205Z,7.10
2022-10-07T17:08:40.542Z,7.83
2022-10-07T17:10:45.559Z,7.60
2022-10-07T17:12:48.236Z,7.10
2022-10-07T17:14:50.867Z,6.67
2022-10-07T17:16:56.575Z,7.93
2022-10-07T17:18:59.512Z,8.80
2022-10-07T17:21:02.164Z,9.47
2022-10-07T17:23:04.840Z,9.00
2022-10-07T17:25:09.474Z,9.60
2022-10-07T17:27:12.122Z,9.80
2022-10-07T17:29:18.150Z,8.17
2022-10-07T17:31:20.952Z,9.10
2022-10-07T17:33:23.722Z,9.40
2022-10-07T17:35:28.183Z,9.57
2022-10-07T17:37:30.864Z,10.20
2022-10-07T17:39:33.599Z,10.63
2022-10-07T17:41:38.907Z,9.90
2022-10-07T17:43:41.881Z,9.90
2022-10-07T17:45:44.543Z,9.70
2022-10-07T17:47:47.662Z,9.50
2022-10-07T17:49:50.673Z,10.63
2022-10-07T17:51:55.114Z,10.60
2022-10-07T17:53:59.557Z,10.10
2022-10-07T17:56:02.648Z,9.77
2022-10-07T17:58:06.715Z,9.47
2022-10-07T18:00:10.558Z,9.93
2022-10-07T18:02:16.181Z,9.30
2022-10-07T18:04:23.887Z,9.13
2022-10-07T18:06:28.910Z,9.80
2022-10-07T18:08:31.685Z,10.50
2022-10-07T18:10:34.486Z,9.80
2022-10-07T18:12:54.562Z,10.00
2022-10-07T18:15:16.270Z,9.90
2022-10-07T18:17:19.260Z,9.73
2022-10-07T18:19:22.982Z,11.17
2022-10-07T18:21:27.654Z,12.17
2022-10-07T18:23:30.331Z,13.87
2022-10-07T18:25:34.054Z,20.20
2022-10-07T18:27:36.747Z,19.17
2022-10-07T18:29:39.642Z,13.63
2022-10-07T18:31:43.919Z,12.93
2022-10-07T18:33:46.643Z,14.37
2022-10-07T18:35:49.291Z,15.10
2022-10-07T18:37:52.345Z,15.27
2022-10-07T18:39:55.065Z,14.20
2022-10-07T18:41:58.854Z,13.83
2022-10-07T18:44:01.567Z,13.03
2022-10-07T18:46:06.451Z,13.57
2022-10-07T18:48:10.613Z,12.97
2022-10-07T18:50:13.305Z,12.97
2022-10-07T18:52:16.075Z,12.97
2022-10-07T18:54:19.004Z,12.77
2022-10-07T18:56:23.660Z,13.07
2022-10-07T18:58:26.397Z,13.03
2022-10-07T19:00:29.261Z,14.17
2022-10-07T19:02:32.003Z,16.70
2022-10-07T19:04:36.054Z,17.03
2022-10-07T19:06:43.814Z,15.40
2022-10-07T19:08:47.084Z,14.93
2022-10-07T19:10:49.834Z,15.17
2022-10-07T19:13:10.096Z,15.10
2022-10-07T19:15:12.770Z,12.20
2022-10-07T19:17:15.482Z,13.50
2022-10-07T19:19:20.688Z,12.83
2022-10-07T19:21:25.946Z,14.27
2022-10-07T19:23:29.384Z,14.60
2022-10-07T19:25:47.206Z,16.07
2022-10-07T19:27:49.870Z,17.00
2022-10-07T19:29:52.601Z,14.93
2022-10-07T19:31:56.622Z,15.17
2022-10-07T19:34:02.532Z,14.93
2022-10-07T19:36:05.956Z,17.93
2022-10-07T19:38:10.122Z,16.80
2022-10-07T19:40:12.806Z,15.00
2022-10-07T19:42:15.471Z,13.57
2022-10-07T19:44:18.311Z,16.17
2022-10-07T19:46:22.551Z,14.80
2022-10-07T19:48:25.739Z,15.23
2022-10-07T19:50:28.420Z,14.30
2022-10-07T19:52:31.093Z,15.00
2022-10-07T19:54:36.237Z,16.30
2022-10-07T19:56:40.727Z,14.67
2022-10-07T19:58:51.030Z,13.67
2022-10-07T20:00:53.809Z,10.70
2022-10-07T20:02:57.846Z,10.80
2022-10-07T20:05:00.529Z,9.90
2022-10-07T20:07:03.251Z,10.13
2022-10-07T20:09:08.244Z,10.07
2022-10-07T20:11:13.171Z,9.80
2022-10-07T20:13:17.551Z,10.63
2022-10-07T20:15:21.101Z,11.13
2022-10-07T20:17:24.229Z,10.00
2022-10-07T20:19:27.188Z,10.27
2022-10-07T20:21:30.355Z,10.63
2022-10-07T20:23:34.420Z,10.20
2022-10-07T20:25:39.051Z,10.70
2022-10-07T20:27:43.967Z,9.77
2022-10-07T20:29:58.955Z,10.17
2022-10-07T20:32:02.349Z,10.57
2022-10-07T20:34:06.175Z,9.43
2022-10-07T20:36:10.540Z,10.23
2022-10-07T20:38:13.211Z,10.40
2022-10-07T20:40:33.162Z,8.93
2022-10-07T20:42:35.198Z,9.20
2022-10-07T20:44:39.880Z,9.67
2022-10-07T20:46:42.812Z,9.13
2022-10-07T20:48:45.816Z,9.57
2022-10-07T20:50:48.628Z,10.27
2022-10-07T20:52:51.319Z,10.60
2022-10-07T20:54:54.451Z,11.20
2022-10-07T20:56:58.924Z,10.97
2022-10-07T20:59:01.589Z,10.80
2022-10-07T21:01:09.711Z,10.17
2022-10-07T21:03:12.549Z,9.60
2022-10-07T21:05:15.346Z,10.63
2022-10-07T21:07:19.580Z,11.90
2022-10-07T21:09:22.347Z,11.03
2022-10-07T21:11:25.578Z,9.60
2022-10-07T21:13:28.383Z,9.77
2022-10-07T21:15:31.301Z,10.10
2022-10-07T21:17:36.246Z,10.10
2022-10-07T21:19:39.062Z,10.20
2022-10-07T21:21:42.084Z,9.60
2022-10-07T21:23:44.832Z,9.83
2022-10-07T21:25:48.099Z,9.97
2022-10-07T21:27:50.834Z,12.00
2022-10-07T21:29:53.559Z,12.03
2022-10-07T21:31:56.358Z,15.97
2022-10-07T21:34:01.607Z,11.93
2022-10-07T21:36:06.868Z,12.73
2022-10-07T21:38:09.602Z,14.00
2022-10-07T21:40:12.291Z,10.30
2022-10-07T21:42:15.690Z,15.57
2022-10-07T21:44:18.686Z,22.33
2022-10-07T21:46:22.247Z,18.97
2022-10-07T21:48:25.006Z,16.90
2022-10-07T21:50:29.049Z,21.23
2022-10-07T21:52:31.827Z,18.67
2022-10-07T21:54:34.468Z,15.43
2022-10-07T21:56:37.213Z,15.53
2022-10-07T21:58:40.148Z,15.03
2022-10-07T22:00:43.409Z,15.03
2022-10-07T22:02:46.464Z,12.60
2022-10-07T22:04:49.330Z,18.10
2022-10-07T22:07:10.812Z,14.07
2022-10-07T22:09:15.371Z,11.73
2022-10-07T22:11:21.937Z,10.63
2022-10-07T22:13:24.610Z,10.57
2022-10-07T22:15:27.497Z,10.57
2022-10-07T22:17:30.508Z,11.17
2022-10-07T22:19:33.279Z,11.03
2022-10-07T22:21:39.999Z,10.60
2022-10-07T22:23:44.757Z,10.90
2022-10-07T22:25:48.437Z,10.57
2022-10-07T22:27:51.492Z,10.70
2022-10-07T22:29:54.308Z,11.33
2022-10-07T22:31:57.789Z,12.10
2022-10-07T22:34:01.814Z,12.10
2022-10-07T22:36:03.833Z,12.10
2022-10-07T22:38:06.559Z,11.90
2022-10-07T22:40:11.303Z,11.03
2022-10-07T22:42:14.075Z,11.67
2022-10-07T22:44:16.763Z,11.07
2022-10-07T22:46:26.090Z,10.90
2022-10-07T22:48:31.315Z,11.23
2022-10-07T22:50:34.153Z,10.17
2022-10-07T22:52:37.087Z,13.27
2022-10-07T22:54:40.278Z,11.30
2022-10-07T22:56:45.794Z,13.97
2022-10-07T22:58:53.008Z,11.33
2022-10-07T23:00:55.707Z,10.97
2022-10-07T23:02:58.556Z,10.57
2022-10-07T23:05:01.456Z,11.33
2022-10-07T23:07:04.200Z,11.20
2022-10-07T23:09:06.910Z,10.20
2022-10-07T23:11:11.005Z,10.53
2022-10-07T23:13:15.137Z,9.33
2022-10-07T23:15:19.647Z,11.07
2022-10-07T23:17:22.617Z,9.20
2022-10-07T23:19:25.429Z,9.50
2022-10-07T23:21:30.020Z,9.47
2022-10-07T23:23:36.343Z,9.23
2022-10-07T23:25:43.131Z,8.83
2022-10-07T23:27:45.844Z,9.50
2022-10-07T23:29:49.964Z,10.87
2022-10-07T23:31:52.682Z,10.00
2022-10-07T23:33:57.224Z,8.97
2022-10-07T23:36:00.943Z,7.90
2022-10-07T23:38:03.638Z,8.53
2022-10-07T23:40:07.699Z,8.97
2022-10-07T23:42:10.461Z,14.40
2022-10-07T23:44:13.169Z,18.10
2022-10-07T23:46:19.169Z,22.53
2022-10-07T23:48:22.456Z,13.17
2022-10-07T23:50:25.203Z,10.10
2022-10-07T23:52:27.874Z,10.03
2022-10-07T23:54:30.575Z,9.23
2022-10-07T23:56:33.878Z,18.93
2022-10-07T23:58:37.257Z,17.83
